Time;durP1;ratioP1;P1;durP2;ratioP2;P2;SDS_P1;SDS_P2;PMS_P1;PMS_P2;Temp;Humidity;BMP_temperature;BMP_pressure;BME280_temperature;BME280_humidity;BME280_pressure;Samples;Min_cycle;Max_cycle;Signal;HPM_P1;HPM_P2
2022/11/12 00:02:28;;;;;;;;;;;5.80;99.90;;;;;;2603874;54;19942;31
2022/11/12 00:05:21;;;;;;;;;;;5.80;99.90;;;;;;2603698;54;19997;31
2022/11/12 00:08:16;;;;;;;;;;;5.70;99.90;;;;;;2603890;54;20034;31
2022/11/12 00:11:10;;;;;;;;;;;5.70;99.90;;;;;;2603944;54;20730;31
2022/11/12 00:14:06;;;;;;;;;;;5.60;99.90;;;;;;2603834;54;20893;31
2022/11/12 00:17:02;;;;;;;;;;;5.60;99.90;;;;;;2603685;54;19996;31
2022/11/12 00:19:55;;;;;;;;;;;5.60;99.90;;;;;;2603835;54;20796;31
2022/11/12 00:22:49;;;;;;;;;;;5.70;99.90;;;;;;2603753;54;19942;31
2022/11/12 00:25:42;;;;;;;;;;;5.60;99.90;;;;;;2603956;54;19941;31
2022/11/12 00:28:34;;;;;;;;;;;5.60;99.90;;;;;;2603903;54;19949;31
2022/11/12 00:31:30;;;;;;;;;;;5.60;99.90;;;;;;2603805;54;19957;31
2022/11/12 00:34:26;;;;;;;;;;;5.60;99.90;;;;;;2702469;39;20376;31
2022/11/12 00:37:22;;;;;;;;;;;5.50;99.90;;;;;;2603791;54;19958;31
2022/11/12 00:40:15;;;;;;;;;;;5.40;99.90;;;;;;2603662;54;20836;31
2022/11/12 00:43:09;;;;;;;;;;;5.40;99.90;;;;;;2603928;54;20049;31
2022/11/12 00:46:02;;;;;;;;;;;5.40;99.90;;;;;;2603780;54;20812;31
2022/11/12 00:48:55;;;;;;;;;;;5.40;99.90;;;;;;2603909;54;20777;31
2022/11/12 00:51:51;;;;;;;;;;;5.30;99.90;;;;;;2603810;54;19985;31
2022/11/12 00:54:46;;;;;;;;;;;5.30;99.90;;;;;;2603773;54;19942;31
2022/11/12 00:57:40;;;;;;;;;;;5.20;99.90;;;;;;2603756;54;20797;31
2022/11/12 01:00:34;;;;;;;;;;;5.20;99.90;;;;;;2603891;54;20836;31
2022/11/12 01:03:30;;;;;;;;;;;5.20;99.90;;;;;;2603787;54;19942;31
2022/11/12 01:06:23;;;;;;;;;;;5.10;99.90;;;;;;2603848;54;20771;31
2022/11/12 01:09:18;;;;;;;;;;;5.10;99.90;;;;;;2603654;54;19938;31
2022/11/12 01:12:11;;;;;;;;;;;5.10;99.90;;;;;;2603468;54;19942;31
2022/11/12 01:15:04;;;;;;;;;;;5.10;99.90;;;;;;2603518;54;19941;31
2022/11/12 01:17:57;;;;;;;;;;;5.00;99.90;;;;;;2603491;54;20786;31
2022/11/12 01:20:49;;;;;;;;;;;5.00;99.90;;;;;;2603598;54;19961;31
2022/11/12 01:23:43;;;;;;;;;;;5.00;99.90;;;;;;2603686;54;19941;31
2022/11/12 01:26:39;;;;;;;;;;;5.00;99.90;;;;;;2603580;54;19969;31
2022/11/12 01:29:32;;;;;;;;;;;4.90;99.90;;;;;;2702214;39;20399;31
2022/11/12 01:32:26;;;;;;;;;;;4.90;99.90;;;;;;2603644;54;20009;31
2022/11/12 01:35:19;;;;;;;;;;;4.90;99.90;;;;;;2603542;54;20859;31
2022/11/12 01:38:12;;;;;;;;;;;4.90;99.90;;;;;;2603815;54;19942;31
2022/11/12 01:41:05;;;;;;;;;;;4.80;99.90;;;;;;2603588;54;20764;31
2022/11/12 01:44:14;;;;;;;;;;;4.80;99.90;;;;;;2603568;54;20793;31
2022/11/12 01:47:07;;;;;;;;;;;4.80;99.90;;;;;;2603761;54;20799;31
2022/11/12 01:50:00;;;;;;;;;;;4.70;99.90;;;;;;2603595;54;20045;31
2022/11/12 01:52:58;;;;;;;;;;;4.60;99.90;;;;;;2603533;54;19986;31
2022/11/12 01:55:54;;;;;;;;;;;4.50;99.90;;;;;;2603731;54;19941;31
2022/11/12 01:58:46;;;;;;;;;;;4.50;99.90;;;;;;2603527;54;19957;31
2022/11/12 02:01:40;;;;;;;;;;;4.50;99.90;;;;;;2702321;39;22176;31
2022/11/12 02:04:32;;;;;;;;;;;4.40;99.90;;;;;;2603518;54;20756;31
2022/11/12 02:07:25;;;;;;;;;;;4.30;99.90;;;;;;2603617;54;19973;31
2022/11/12 02:10:17;;;;;;;;;;;4.30;99.90;;;;;;2603565;54;20763;31
2022/11/12 02:16:14;;;;;;;;;;;4.30;99.90;;;;;;2603504;54;19997;31
2022/11/12 02:19:13;;;;;;;;;;;4.30;99.90;;;;;;2603667;54;20851;31
2022/11/12 02:22:09;;;;;;;;;;;4.30;99.90;;;;;;2603521;54;19942;31
2022/11/12 02:25:00;;;;;;;;;;;4.30;99.90;;;;;;2603577;54;20048;31
2022/11/12 02:27:53;;;;;;;;;;;4.30;99.90;;;;;;2603361;54;19956;31
2022/11/12 02:30:48;;;;;;;;;;;4.30;99.90;;;;;;2602988;54;20041;31
2022/11/12 02:33:40;;;;;;;;;;;4.30;99.90;;;;;;2603445;54;19961;31
2022/11/12 02:36:33;;;;;;;;;;;4.30;99.90;;;;;;2603393;54;20013;31
2022/11/12 02:39:29;;;;;;;;;;;4.30;99.90;;;;;;2603454;54;20026;31
2022/11/12 02:42:22;;;;;;;;;;;4.30;99.90;;;;;;2603464;54;19968;31
2022/11/12 02:45:15;;;;;;;;;;;4.20;99.90;;;;;;2603372;54;20841;31
2022/11/12 02:48:11;;;;;;;;;;;4.30;99.90;;;;;;2603334;54;19949;31
2022/11/12 02:51:15;;;;;;;;;;;4.30;99.90;;;;;;2603422;54;19973;31
2022/11/12 02:54:06;;;;;;;;;;;4.20;99.90;;;;;;2603328;54;20065;31
2022/11/12 02:57:02;;;;;;;;;;;4.20;99.90;;;;;;2603270;54;19942;31
2022/11/12 02:59:55;;;;;;;;;;;4.30;99.90;;;;;;2603276;54;19942;31
2022/11/12 03:02:57;;;;;;;;;;;4.20;99.90;;;;;;2603380;54;19942;31
2022/11/12 03:05:57;;;;;;;;;;;4.20;99.90;;;;;;2603288;54;20017;31
2022/11/12 03:08:49;;;;;;;;;;;4.20;99.90;;;;;;2603281;54;20816;31
2022/11/12 03:11:39;;;;;;;;;;;4.20;99.90;;;;;;2702018;39;22298;31
2022/11/12 03:14:33;;;;;;;;;;;4.10;99.90;;;;;;2603015;54;19941;31
2022/11/12 03:17:25;;;;;;;;;;;4.10;99.90;;;;;;2603205;54;20750;31
2022/11/12 03:20:20;;;;;;;;;;;4.10;99.90;;;;;;2603240;54;20731;31
2022/11/12 03:23:13;;;;;;;;;;;4.00;99.90;;;;;;2603142;54;19957;31
2022/11/12 03:26:08;;;;;;;;;;;4.00;99.90;;;;;;2603327;54;19942;31
2022/11/12 03:29:00;;;;;;;;;;;4.00;99.90;;;;;;2603299;54;20017;31
2022/11/12 03:31:59;;;;;;;;;;;3.90;99.90;;;;;;2603185;54;20789;31
2022/11/12 03:34:51;;;;;;;;;;;3.90;99.90;;;;;;2603351;54;19969;31
2022/11/12 03:37:57;;;;;;;;;;;3.80;99.90;;;;;;2603354;54;19997;31
2022/11/12 03:40:50;;;;;;;;;;;3.80;99.90;;;;;;2603429;54;20014;31
2022/11/12 03:43:45;;;;;;;;;;;3.80;99.90;;;;;;2603931;54;19966;31
2022/11/12 03:46:38;;;;;;;;;;;3.80;99.90;;;;;;2604025;54;20812;31
2022/11/12 03:49:38;;;;;;;;;;;3.70;99.90;;;;;;2603977;54;19961;31
2022/11/12 03:52:33;;;;;;;;;;;3.70;99.90;;;;;;2603990;54;20718;31
2022/11/12 03:55:26;;;;;;;;;;;3.70;99.90;;;;;;2603747;54;20807;31
2022/11/12 03:58:19;;;;;;;;;;;3.60;99.90;;;;;;2603899;54;19941;31
2022/11/12 04:01:11;;;;;;;;;;;3.60;99.90;;;;;;2604021;54;20741;31
2022/11/12 04:04:08;;;;;;;;;;;3.60;99.90;;;;;;2604033;54;20848;31
2022/11/12 04:10:11;;;;;;;;;;;3.50;99.90;;;;;;2604016;54;19994;31
2022/11/12 04:22:27;;;;;;;;;;;3.50;99.90;;;;;;2603954;54;20795;31
2022/11/12 04:28:26;;;;;;;;;;;3.40;99.90;;;;;;2603779;54;19938;31
2022/11/12 04:31:17;;;;;;;;;;;3.40;99.90;;;;;;2603912;54;19942;31
2022/11/12 04:37:15;;;;;;;;;;;3.30;99.90;;;;;;2603808;54;20761;31
2022/11/12 04:46:27;;;;;;;;;;;3.30;99.90;;;;;;2603830;54;20862;31
2022/11/12 04:49:20;;;;;;;;;;;3.20;99.90;;;;;;2603794;54;20820;31
2022/11/12 04:52:11;;;;;;;;;;;3.20;99.90;;;;;;2603660;54;20057;31
2022/11/12 04:55:03;;;;;;;;;;;3.10;99.90;;;;;;2603659;54;19990;31
2022/11/12 04:57:58;;;;;;;;;;;3.10;99.90;;;;;;2603824;54;19941;31
2022/11/12 05:00:53;;;;;;;;;;;3.10;99.90;;;;;;2603692;54;19997;31
2022/11/12 05:03:44;;;;;;;;;;;3.10;99.90;;;;;;2603821;54;19961;31
2022/11/12 05:09:39;;;;;;;;;;;3.10;99.90;;;;;;2702528;39;20991;31
2022/11/12 05:12:30;;;;;;;;;;;3.00;99.90;;;;;;2603779;54;20088;31
2022/11/12 05:15:28;;;;;;;;;;;3.00;99.90;;;;;;2603512;54;19957;31
2022/11/12 05:18:19;;;;;;;;;;;3.00;99.90;;;;;;2603678;54;19961;31
2022/11/12 05:24:15;;;;;;;;;;;3.00;99.90;;;;;;2603717;54;20765;31
2022/11/12 05:27:27;;;;;;;;;;;3.00;99.90;;;;;;2603885;54;20012;31
2022/11/12 05:30:21;;;;;;;;;;;3.00;99.90;;;;;;2603631;54;19957;31
2022/11/12 05:33:16;;;;;;;;;;;3.00;99.90;;;;;;2603771;54;20020;31
2022/11/12 05:36:10;;;;;;;;;;;3.00;99.90;;;;;;2603110;54;20026;31
2022/11/12 05:39:03;;;;;;;;;;;3.90;99.90;;;;;;2603740;54;20009;31
2022/11/12 05:41:56;;;;;;;;;;;2.90;99.90;;;;;;2603662;54;20005;31
2022/11/12 05:45:04;;;;;;;;;;;2.90;99.90;;;;;;2603627;54;20009;31
2022/11/12 05:47:57;;;;;;;;;;;2.90;99.90;;;;;;2603578;54;20831;31
2022/11/12 05:50:53;;;;;;;;;;;2.90;99.90;;;;;;2603762;54;19942;31
2022/11/12 05:54:08;;;;;;;;;;;2.90;99.90;;;;;;2603771;54;19977;31
2022/11/12 05:57:00;;;;;;;;;;;2.90;99.90;;;;;;2603560;54;20000;31
2022/11/12 05:59:53;;;;;;;;;;;2.90;99.90;;;;;;2603479;54;20851;31
2022/11/12 06:02:47;;;;;;;;;;;2.90;99.90;;;;;;2603371;54;19965;31
2022/11/12 06:05:40;;;;;;;;;;;2.90;99.90;;;;;;2603545;54;19941;31
2022/11/12 06:08:36;;;;;;;;;;;2.90;99.90;;;;;;2603619;54;19958;31
2022/11/12 06:11:28;;;;;;;;;;;2.90;99.90;;;;;;2603705;54;20778;31
2022/11/12 06:14:24;;;;;;;;;;;2.90;99.90;;;;;;2603395;54;19941;31
2022/11/12 06:17:17;;;;;;;;;;;2.90;99.90;;;;;;2603489;54;19942;31
2022/11/12 06:20:11;;;;;;;;;;;2.90;99.90;;;;;;2603454;54;19997;31
2022/11/12 06:23:04;;;;;;;;;;;2.90;99.90;;;;;;2603464;54;20811;31
2022/11/12 06:26:02;;;;;;;;;;;3.00;99.90;;;;;;2603512;54;20757;31
2022/11/12 06:28:55;;;;;;;;;;;3.00;99.90;;;;;;2603602;54;20856;31
2022/11/12 06:31:50;;;;;;;;;;;3.00;99.90;;;;;;2603473;54;20038;31
2022/11/12 06:34:43;;;;;;;;;;;3.10;99.90;;;;;;2603219;54;19941;31
2022/11/12 06:37:36;;;;;;;;;;;3.10;99.90;;;;;;2603601;54;19941;31
2022/11/12 06:40:30;;;;;;;;;;;3.20;99.90;;;;;;2603387;54;20747;31
2022/11/12 06:43:25;;;;;;;;;;;3.30;99.90;;;;;;2603517;54;20844;31
2022/11/12 06:46:18;;;;;;;;;;;3.30;99.90;;;;;;2603434;54;20822;31
2022/11/12 06:49:12;;;;;;;;;;;3.40;99.90;;;;;;2603309;54;20066;31
2022/11/12 06:52:07;;;;;;;;;;;3.40;99.90;;;;;;2603463;54;20065;31
2022/11/12 06:55:10;;;;;;;;;;;3.50;99.90;;;;;;2603481;54;19969;31
2022/11/12 06:58:05;;;;;;;;;;;3.50;99.90;;;;;;2603459;54;20013;31
2022/11/12 07:01:01;;;;;;;;;;;3.60;99.90;;;;;;2603450;54;20842;31
2022/11/12 07:04:00;;;;;;;;;;;3.70;99.90;;;;;;2603348;54;20006;31
2022/11/12 07:06:53;;;;;;;;;;;4.00;99.90;;;;;;2603473;54;19942;31
2022/11/12 07:09:44;;;;;;;;;;;4.30;99.90;;;;;;2603378;54;20788;31
2022/11/12 07:12:37;;;;;;;;;;;4.60;99.90;;;;;;2603307;54;19996;31
2022/11/12 07:15:30;;;;;;;;;;;4.90;99.90;;;;;;2603642;54;20732;31
2022/11/12 07:18:26;;;;;;;;;;;5.10;99.90;;;;;;2604205;54;20718;31
2022/11/12 07:21:20;;;;;;;;;;;5.40;99.90;;;;;;2604214;54;20061;31
2022/11/12 07:24:13;;;;;;;;;;;5.80;99.90;;;;;;2604072;54;20020;31
2022/11/12 07:27:06;;;;;;;;;;;6.20;99.90;;;;;;2604114;54;19953;31
2022/11/12 07:30:02;;;;;;;;;;;6.60;99.90;;;;;;2604124;54;20021;31
2022/11/12 07:32:54;;;;;;;;;;;7.10;99.90;;;;;;2604058;54;20065;31
2022/11/12 07:35:49;;;;;;;;;;;7.60;99.90;;;;;;2603900;54;19998;31
2022/11/12 07:38:41;;;;;;;;;;;8.40;99.90;;;;;;2604134;54;20780;31
2022/11/12 07:41:35;;;;;;;;;;;8.40;99.90;;;;;;2603914;54;20771;31
2022/11/12 07:44:29;;;;;;;;;;;8.80;99.90;;;;;;2604109;54;19997;31
2022/11/12 07:47:22;;;;;;;;;;;9.00;99.90;;;;;;2604047;54;19941;31
2022/11/12 07:50:15;;;;;;;;;;;9.30;99.90;;;;;;2603892;54;20752;31
2022/11/12 07:53:13;;;;;;;;;;;9.50;99.90;;;;;;2604231;54;19965;31
2022/11/12 07:56:12;;;;;;;;;;;9.80;99.90;;;;;;2604001;54;20073;31
2022/11/12 07:59:07;;;;;;;;;;;10.00;99.90;;;;;;2603948;54;19960;31
2022/11/12 08:02:00;;;;;;;;;;;10.30;99.90;;;;;;2603967;54;19943;31
2022/11/12 08:05:01;;;;;;;;;;;10.60;99.90;;;;;;2604001;54;19946;31
2022/11/12 08:07:54;;;;;;;;;;;10.80;99.90;;;;;;2604078;54;19934;31
2022/11/12 08:10:53;;;;;;;;;;;11.00;99.90;;;;;;2603858;54;20802;31
2022/11/12 08:13:49;;;;;;;;;;;11.20;99.90;;;;;;2603937;54;19934;31
2022/11/12 08:16:45;;;;;;;;;;;11.40;99.90;;;;;;2603779;54;20783;31
2022/11/12 08:19:42;;;;;;;;;;;11.50;99.90;;;;;;2603903;54;20784;31
2022/11/12 08:22:35;;;;;;;;;;;11.80;99.90;;;;;;2604079;54;19935;31
2022/11/12 08:25:32;;;;;;;;;;;12.00;99.90;;;;;;2603789;54;19958;31
2022/11/12 08:28:29;;;;;;;;;;;12.10;99.90;;;;;;2603910;54;20749;31
2022/11/12 08:31:22;;;;;;;;;;;12.30;99.90;;;;;;2603872;54;19938;31
2022/11/12 08:34:18;;;;;;;;;;;12.40;99.90;;;;;;2603737;54;19935;31
2022/11/12 08:37:12;;;;;;;;;;;12.50;99.90;;;;;;2603965;54;20774;31
2022/11/12 08:40:06;;;;;;;;;;;12.60;99.90;;;;;;2603833;54;20761;31
2022/11/12 08:43:02;;;;;;;;;;;12.80;99.90;;;;;;2603678;54;20442;31
2022/11/12 08:45:59;;;;;;;;;;;13.10;99.90;;;;;;2603787;54;19938;31
2022/11/12 08:48:54;;;;;;;;;;;13.20;99.90;;;;;;2603893;54;20763;31
2022/11/12 08:51:49;;;;;;;;;;;13.40;99.90;;;;;;2603975;54;19938;31
2022/11/12 08:54:45;;;;;;;;;;;13.60;99.90;;;;;;2603846;54;19942;31
2022/11/12 08:57:40;;;;;;;;;;;13.80;99.90;;;;;;2603787;54;20702;31
2022/11/12 09:00:34;;;;;;;;;;;13.80;99.90;;;;;;2603798;54;20013;31
2022/11/12 09:03:31;;;;;;;;;;;13.80;99.90;;;;;;2603859;54;19934;31
2022/11/12 09:09:13;;;;;;;;;;;13.90;99.90;;;;;;2603835;54;19935;31
2022/11/12 09:12:06;;;;;;;;;;;14.00;99.90;;;;;;2603731;54;21568;31
2022/11/12 09:15:09;;;;;;;;;;;14.10;99.90;;;;;;2603822;54;19984;31
2022/11/12 09:18:22;;;;;;;;;;;14.00;99.90;;;;;;2603809;54;19942;31
2022/11/12 09:21:23;;;;;;;;;;;14.00;99.90;;;;;;2603734;54;20742;31
2022/11/12 09:24:16;;;;;;;;;;;14.10;99.90;;;;;;2603717;54;20020;31
2022/11/12 09:27:09;;;;;;;;;;;14.10;99.90;;;;;;2603710;54;19938;31
2022/11/12 09:30:03;;;;;;;;;;;14.10;99.90;;;;;;2603723;54;20710;31
2022/11/12 09:32:59;;;;;;;;;;;14.20;99.90;;;;;;2603816;54;20722;31
2022/11/12 09:38:51;;;;;;;;;;;14.30;99.90;;;;;;2603716;54;20742;31
2022/11/12 09:41:45;;;;;;;;;;;14.30;99.90;;;;;;2603736;54;19934;31
2022/11/12 09:44:39;;;;;;;;;;;14.20;99.90;;;;;;2603672;54;19942;31
2022/11/12 09:47:32;;;;;;;;;;;14.30;99.90;;;;;;2603469;54;19934;31
2022/11/12 09:50:26;;;;;;;;;;;14.20;99.90;;;;;;2603777;54;19934;31
2022/11/12 09:53:21;;;;;;;;;;;14.30;99.90;;;;;;2603689;54;20821;31
2022/11/12 09:56:23;;;;;;;;;;;14.30;99.90;;;;;;2603692;54;19957;31
2022/11/12 09:59:28;;;;;;;;;;;14.30;99.90;;;;;;2603848;54;19993;31
2022/11/12 10:02:25;;;;;;;;;;;14.40;99.90;;;;;;2603527;54;19971;31
2022/11/12 10:05:24;;;;;;;;;;;14.30;99.90;;;;;;2603519;54;20004;31
2022/11/12 10:08:23;;;;;;;;;;;14.30;99.90;;;;;;2603696;54;20859;31
2022/11/12 10:12:30;;;;;;;;;;;14.30;99.90;;;;;;2603386;54;19934;31
2022/11/12 10:14:50;;;;;;;;;;;14.40;99.90;;;;;;2603729;54;19934;31
2022/11/12 10:17:41;;;;;;;;;;;14.50;99.90;;;;;;2603495;54;19934;31
2022/11/12 10:20:34;;;;;;;;;;;14.50;99.90;;;;;;2603589;54;19934;31
2022/11/12 10:23:30;;;;;;;;;;;14.40;99.90;;;;;;2603546;54;19934;31
2022/11/12 10:26:25;;;;;;;;;;;14.50;99.90;;;;;;2603641;54;20796;31
2022/11/12 10:29:21;;;;;;;;;;;14.60;99.90;;;;;;2603517;54;19934;31
2022/11/12 10:32:17;;;;;;;;;;;14.70;99.90;;;;;;2701954;39;20377;31
2022/11/12 10:35:14;;;;;;;;;;;14.70;99.90;;;;;;2603625;54;19939;31
2022/11/12 10:38:06;;;;;;;;;;;14.50;99.90;;;;;;2603427;54;19934;31
2022/11/12 10:40:59;;;;;;;;;;;14.40;99.90;;;;;;2603311;54;20746;31
2022/11/12 10:43:55;;;;;;;;;;;14.50;99.90;;;;;;2603345;54;20730;31
2022/11/12 10:46:48;;;;;;;;;;;14.50;99.90;;;;;;2603484;54;20750;31
2022/11/12 10:49:44;;;;;;;;;;;14.40;99.90;;;;;;2603915;54;20763;31
2022/11/12 10:52:38;;;;;;;;;;;14.20;99.90;;;;;;2609806;54;19934;31
2022/11/12 10:59:16;;;;;;;;;;;13.90;99.90;;;;;;2703485;39;20389;31
2022/11/12 11:02:18;;;;;;;;;;;13.80;99.90;;;;;;2605215;54;19957;31
2022/11/12 11:05:32;;;;;;;;;;;13.80;99.90;;;;;;2604944;54;20784;31
2022/11/12 11:08:36;;;;;;;;;;;13.60;99.90;;;;;;2605137;54;19934;31
2022/11/12 11:11:30;;;;;;;;;;;13.50;99.90;;;;;;2703755;39;20385;31
2022/11/12 11:14:26;;;;;;;;;;;13.50;99.90;;;;;;2605189;54;19957;31
2022/11/12 11:17:19;;;;;;;;;;;13.40;99.90;;;;;;2605032;54;20774;31
2022/11/12 11:20:16;;;;;;;;;;;13.30;99.90;;;;;;2605119;54;19985;31
2022/11/12 11:23:12;;;;;;;;;;;13.20;99.90;;;;;;2604885;54;19946;31
2022/11/12 11:26:07;;;;;;;;;;;13.20;99.90;;;;;;2605122;54;20776;31
2022/11/12 11:29:03;;;;;;;;;;;13.20;99.90;;;;;;2605027;54;19934;31
2022/11/12 11:31:56;;;;;;;;;;;13.20;99.90;;;;;;2605083;54;19939;31
2022/11/12 11:34:50;;;;;;;;;;;13.20;99.90;;;;;;2605017;54;19934;31
2022/11/12 11:37:47;;;;;;;;;;;13.20;99.90;;;;;;2605101;54;20747;31
2022/11/12 11:40:45;;;;;;;;;;;13.10;99.90;;;;;;2605155;54;19935;31
2022/11/12 11:43:41;;;;;;;;;;;13.10;99.90;;;;;;2605047;54;19950;31
2022/11/12 11:46:40;;;;;;;;;;;13.10;99.90;;;;;;2604830;54;19935;31
2022/11/12 11:49:51;;;;;;;;;;;13.10;99.90;;;;;;2604603;54;20805;31
2022/11/12 11:52:47;;;;;;;;;;;13.00;99.90;;;;;;2604802;54;20776;31
2022/11/12 11:55:49;;;;;;;;;;;13.00;99.90;;;;;;2605081;54;19938;31
2022/11/12 11:58:45;;;;;;;;;;;12.90;99.90;;;;;;2604718;54;20888;31
2022/11/12 12:01:40;;;;;;;;;;;12.90;99.90;;;;;;2603965;54;19934;31
2022/11/12 12:04:36;;;;;;;;;;;12.90;99.90;;;;;;2603977;54;19934;31
2022/11/12 12:07:30;;;;;;;;;;;12.90;99.90;;;;;;2603949;54;19997;31
2022/11/12 12:10:24;;;;;;;;;;;12.90;99.90;;;;;;2603780;54;20702;31
2022/11/12 12:13:44;;;;;;;;;;;12.90;99.90;;;;;;2603925;54;19935;31
2022/11/12 12:16:41;;;;;;;;;;;12.90;99.90;;;;;;2603854;54;19934;31
2022/11/12 12:19:36;;;;;;;;;;;12.90;99.90;;;;;;2603956;54;20714;31
2022/11/12 12:22:32;;;;;;;;;;;12.90;99.90;;;;;;2603877;54;20792;31
2022/11/12 12:25:25;;;;;;;;;;;12.90;99.90;;;;;;2603736;54;19934;31
2022/11/12 12:28:19;;;;;;;;;;;12.90;99.90;;;;;;2603897;54;20812;31
2022/11/12 12:31:17;;;;;;;;;;;12.90;99.90;;;;;;2604029;54;20056;31
2022/11/12 12:34:14;;;;;;;;;;;12.90;99.90;;;;;;2603934;54;19942;31
2022/11/12 12:37:12;;;;;;;;;;;12.90;99.90;;;;;;2603850;54;19939;31
2022/11/12 12:40:05;;;;;;;;;;;12.80;99.90;;;;;;2603720;54;19934;31
2022/11/12 12:42:59;;;;;;;;;;;12.80;99.90;;;;;;2603803;54;20713;31
2022/11/12 12:45:53;;;;;;;;;;;12.80;99.90;;;;;;2702469;39;21378;31
2022/11/12 12:48:53;;;;;;;;;;;12.80;99.90;;;;;;2604043;54;19938;31
2022/11/12 12:51:47;;;;;;;;;;;12.70;99.90;;;;;;2604029;54;20878;31
2022/11/12 12:54:59;;;;;;;;;;;12.70;99.90;;;;;;2702155;39;21347;31
2022/11/12 12:57:55;;;;;;;;;;;12.70;99.90;;;;;;2603641;54;20784;31
2022/11/12 13:00:49;;;;;;;;;;;12.70;99.90;;;;;;2603760;54;20038;31
2022/11/12 13:03:44;;;;;;;;;;;12.70;99.90;;;;;;2603825;54;19934;31
2022/11/12 13:06:39;;;;;;;;;;;12.70;99.90;;;;;;2603856;54;20757;31
2022/11/12 13:09:49;;;;;;;;;;;12.60;99.90;;;;;;2603700;54;19998;31
2022/11/12 13:12:57;;;;;;;;;;;12.60;99.90;;;;;;2603699;54;19934;31
2022/11/12 13:15:52;;;;;;;;;;;12.50;99.90;;;;;;2603812;54;19942;31
2022/11/12 13:18:58;;;;;;;;;;;12.50;99.90;;;;;;2603654;54;19935;31
2022/11/12 13:21:54;;;;;;;;;;;12.40;99.90;;;;;;2603654;54;20759;31
2022/11/12 13:25:02;;;;;;;;;;;12.40;99.90;;;;;;2603973;54;19942;31
2022/11/12 13:28:09;;;;;;;;;;;12.30;99.90;;;;;;2603789;54;20731;31
2022/11/12 13:31:02;;;;;;;;;;;12.30;99.90;;;;;;2603854;54;19997;31
2022/11/12 13:33:56;;;;;;;;;;;12.20;99.90;;;;;;2603839;54;19934;31
2022/11/12 13:37:07;;;;;;;;;;;12.20;99.90;;;;;;2603855;54;19997;31
2022/11/12 13:42:49;;;;;;;;;;;12.10;99.90;;;;;;2603740;54;19981;31
2022/11/12 13:45:44;;;;;;;;;;;12.20;99.90;;;;;;2603809;54;20827;31
2022/11/12 13:48:37;;;;;;;;;;;12.10;99.90;;;;;;2603607;54;20833;31
2022/11/12 13:51:37;;;;;;;;;;;12.00;99.90;;;;;;2603709;54;19934;31
2022/11/12 13:54:33;;;;;;;;;;;12.00;99.90;;;;;;2603554;54;20751;31
2022/11/12 13:57:31;;;;;;;;;;;11.90;99.90;;;;;;2603665;54;19935;31
2022/11/12 14:00:26;;;;;;;;;;;11.90;99.90;;;;;;2603528;54;20744;31
2022/11/12 14:03:19;;;;;;;;;;;11.80;99.90;;;;;;2603655;54;19942;31
2022/11/12 14:06:17;;;;;;;;;;;11.70;99.90;;;;;;2603673;54;19935;31
2022/11/12 14:09:22;;;;;;;;;;;11.70;99.90;;;;;;2603556;54;20799;31
2022/11/12 14:12:30;;;;;;;;;;;11.60;99.90;;;;;;2603586;54;20732;31
2022/11/12 14:15:30;;;;;;;;;;;11.50;99.90;;;;;;2603745;54;21324;31
2022/11/12 14:18:22;;;;;;;;;;;11.40;99.90;;;;;;2603491;54;20808;31
2022/11/12 14:21:19;;;;;;;;;;;11.30;99.90;;;;;;2603666;54;19935;31
2022/11/12 14:24:11;;;;;;;;;;;11.20;99.90;;;;;;2603267;54;20741;31
2022/11/12 14:27:08;;;;;;;;;;;11.20;99.90;;;;;;2603310;54;19939;31
2022/11/12 14:30:05;;;;;;;;;;;11.10;99.90;;;;;;2603395;54;20776;31
2022/11/12 14:33:03;;;;;;;;;;;11.00;99.90;;;;;;2603610;54;19997;31
2022/11/12 14:35:57;;;;;;;;;;;10.90;99.90;;;;;;2603389;54;20094;31
2022/11/12 14:38:51;;;;;;;;;;;10.80;99.90;;;;;;2603377;54;19938;31
2022/11/12 14:41:46;;;;;;;;;;;10.90;99.90;;;;;;2603493;54;20784;31
2022/11/12 14:44:41;;;;;;;;;;;10.80;99.90;;;;;;2603424;54;19935;31
2022/11/12 14:47:33;;;;;;;;;;;10.70;99.90;;;;;;2602852;54;20769;31
2022/11/12 14:50:28;;;;;;;;;;;10.80;99.90;;;;;;2603243;54;19935;31
2022/11/12 14:53:27;;;;;;;;;;;10.90;99.90;;;;;;2603552;54;20727;31
2022/11/12 14:56:22;;;;;;;;;;;10.90;99.90;;;;;;2603569;54;19938;31
2022/11/12 14:59:16;;;;;;;;;;;10.80;99.90;;;;;;2603313;54;19946;31
2022/11/12 15:02:11;;;;;;;;;;;10.70;99.90;;;;;;2603351;54;19938;31
2022/11/12 15:05:27;;;;;;;;;;;10.50;99.90;;;;;;2603428;54;19989;31
2022/11/12 15:08:31;;;;;;;;;;;10.40;99.90;;;;;;2603326;54;19954;31
2022/11/12 15:11:26;;;;;;;;;;;10.40;99.90;;;;;;2701783;39;20475;31
2022/11/12 15:14:21;;;;;;;;;;;10.30;99.90;;;;;;2603336;54;19943;31
2022/11/12 15:17:22;;;;;;;;;;;10.30;99.90;;;;;;2603217;54;20781;31
2022/11/12 15:20:19;;;;;;;;;;;10.20;99.90;;;;;;2603122;54;19942;31
2022/11/12 15:23:17;;;;;;;;;;;10.10;99.90;;;;;;2603392;54;20001;31
2022/11/12 15:26:16;;;;;;;;;;;10.00;99.90;;;;;;2603509;54;19934;31
2022/11/12 15:29:16;;;;;;;;;;;10.00;99.90;;;;;;2603209;54;19935;31
2022/11/12 15:32:24;;;;;;;;;;;9.90;99.90;;;;;;2603074;54;19946;31
2022/11/12 15:35:17;;;;;;;;;;;9.90;99.90;;;;;;2603343;54;20765;31
2022/11/12 15:38:09;;;;;;;;;;;9.90;99.90;;;;;;2604010;54;20736;31
2022/11/12 15:41:04;;;;;;;;;;;9.80;99.90;;;;;;2604068;54;19961;31
2022/11/12 15:43:59;;;;;;;;;;;9.80;99.90;;;;;;2603997;54;20864;31
2022/11/12 15:46:53;;;;;;;;;;;9.80;99.90;;;;;;2604183;54;19996;31
2022/11/12 15:49:48;;;;;;;;;;;9.70;99.90;;;;;;2702836;39;20938;31
2022/11/12 15:52:40;;;;;;;;;;;9.70;99.90;;;;;;2603923;54;20932;31
2022/11/12 15:55:34;;;;;;;;;;;9.70;99.90;;;;;;2603996;54;19997;31
2022/11/12 15:58:29;;;;;;;;;;;9.60;99.90;;;;;;2604140;54;20799;31
2022/11/12 16:01:25;;;;;;;;;;;9.60;99.90;;;;;;2603794;54;19958;31
2022/11/12 16:04:17;;;;;;;;;;;9.60;99.90;;;;;;2603979;54;19958;31
2022/11/12 16:07:11;;;;;;;;;;;9.50;99.90;;;;;;2604009;54;20009;31
2022/11/12 16:10:07;;;;;;;;;;;9.50;99.90;;;;;;2603951;54;19986;31
2022/11/12 16:13:00;;;;;;;;;;;9.50;99.90;;;;;;2604071;54;20724;31
2022/11/12 16:15:54;;;;;;;;;;;9.50;99.90;;;;;;2604066;54;19941;31
2022/11/12 16:18:51;;;;;;;;;;;9.40;99.90;;;;;;2603782;54;20868;31
2022/11/12 16:21:45;;;;;;;;;;;9.40;99.90;;;;;;2603845;54;20774;31
2022/11/12 16:24:38;;;;;;;;;;;9.40;99.90;;;;;;2603865;54;20013;31
2022/11/12 16:27:33;;;;;;;;;;;9.40;99.90;;;;;;2603840;54;20016;31
2022/11/12 16:30:31;;;;;;;;;;;9.40;99.90;;;;;;2603733;54;19959;31
2022/11/12 16:33:26;;;;;;;;;;;9.40;99.90;;;;;;2702465;39;20420;31
2022/11/12 16:36:25;;;;;;;;;;;9.40;99.90;;;;;;2603820;54;19973;31
2022/11/12 16:39:20;;;;;;;;;;;9.30;99.90;;;;;;2603825;54;19941;31
2022/11/12 16:42:13;;;;;;;;;;;9.20;99.90;;;;;;2603468;54;20820;31
2022/11/12 16:45:07;;;;;;;;;;;9.20;99.90;;;;;;2603754;54;20072;31
2022/11/12 16:48:02;;;;;;;;;;;9.20;99.90;;;;;;2603467;54;19942;31
2022/11/12 16:50:56;;;;;;;;;;;9.20;99.90;;;;;;2603705;54;19957;31
2022/11/12 16:53:52;;;;;;;;;;;9.20;99.90;;;;;;2603736;54;19958;31
2022/11/12 16:56:46;;;;;;;;;;;9.20;99.90;;;;;;2603825;54;19957;31
2022/11/12 16:59:39;;;;;;;;;;;9.20;99.90;;;;;;2603780;54;20716;31
2022/11/12 17:02:34;;;;;;;;;;;9.20;99.90;;;;;;2603818;54;20000;31
2022/11/12 17:05:36;;;;;;;;;;;9.20;99.90;;;;;;2603703;54;20725;31
2022/11/12 17:08:29;;;;;;;;;;;9.30;99.90;;;;;;2603831;54;19958;31
2022/11/12 17:11:30;;;;;;;;;;;9.30;99.90;;;;;;2603838;54;20783;31
2022/11/12 17:14:26;;;;;;;;;;;9.20;99.90;;;;;;2603761;54;20775;31
2022/11/12 17:17:22;;;;;;;;;;;9.30;99.90;;;;;;2603649;54;19942;31
2022/11/12 17:20:15;;;;;;;;;;;9.30;99.90;;;;;;2603720;54;20737;31
2022/11/12 17:23:08;;;;;;;;;;;9.30;99.90;;;;;;2603604;54;19984;31
2022/11/12 17:26:03;;;;;;;;;;;9.30;99.90;;;;;;2603790;54;19942;31
2022/11/12 17:29:00;;;;;;;;;;;9.40;99.90;;;;;;2603710;54;20472;31
2022/11/12 17:32:06;;;;;;;;;;;9.40;99.90;;;;;;2603599;54;20064;31
2022/11/12 17:34:59;;;;;;;;;;;9.40;99.90;;;;;;2603637;54;20008;31
2022/11/12 17:37:54;;;;;;;;;;;9.50;99.90;;;;;;2603679;54;20531;31
2022/11/12 17:40:47;;;;;;;;;;;9.50;99.90;;;;;;2603769;54;19958;31
2022/11/12 17:43:42;;;;;;;;;;;9.60;99.90;;;;;;2603670;54;20801;31
2022/11/12 17:46:36;;;;;;;;;;;9.60;99.90;;;;;;2603490;54;20049;31
2022/11/12 17:49:32;;;;;;;;;;;9.60;99.90;;;;;;2603665;54;20768;31
2022/11/12 17:52:25;;;;;;;;;;;9.70;99.90;;;;;;2603627;54;20791;31
2022/11/12 17:55:19;;;;;;;;;;;9.70;99.90;;;;;;2603463;54;19997;31
2022/11/12 17:58:13;;;;;;;;;;;9.70;99.90;;;;;;2603415;54;20532;31
2022/11/12 18:01:08;;;;;;;;;;;9.80;99.90;;;;;;2603422;54;20745;31
2022/11/12 18:04:01;;;;;;;;;;;9.80;99.90;;;;;;2603417;54;19941;31
2022/11/12 18:07:01;;;;;;;;;;;9.80;99.90;;;;;;2603576;54;20053;31
2022/11/12 18:09:55;;;;;;;;;;;9.80;99.90;;;;;;2603104;54;19985;31
2022/11/12 18:12:49;;;;;;;;;;;9.80;99.90;;;;;;2603471;54;20038;31
2022/11/12 18:15:41;;;;;;;;;;;9.80;99.90;;;;;;2603566;54;20826;31